• Join FlightAware (Why Join?)
  • Login
  • US Flag 
11:19AM EDT


 

Airport Tracker/Info


-or-


 

Live Flight TrackerFlight Track Log ✈ UAL3853 ✈ 10-Apr-2014 ✈ KCLE - KLGA

Flight Track Log - Related Links

Times and Time Zones

All times are in EDT time to prevent confusion due to time zone crossing. See the UAL3853 flight status page for this flight to view local times or setup timezone preferences in your user account.

Time Position Orientation Groundspeed Altitude Reporting Facility
EDT Latitude Longitude Course Direction KTS MPH feet Rate Location/Type
11:15AM 41.3975 -81.8736 105° East 158 182 1,900  Level Cleveland Center
11:16AM 41.4019 -81.9169 278° West 179 206 3,100 1,920 Climbing Cleveland Center
11:17AM 41.4133 -81.9919 281° West 196 226 5,300 2,580 Climbing Cleveland Center
11:18AM 41.6359 -81.6141 37° Northeast  Level FlightAware Approximate
11:18AM 41.4658 -82.0181 340° North 242 278 8,400  Level Cleveland Center
11:19AM 41.7152 -81.5348 37° Northeast  Level FlightAware Approximate
11:20AM 41.7947 -81.4554 37° Northeast  Level FlightAware Approximate
11:20AM 41.5853 -81.8342 49° Northeast 336 387 11,200  Level Cleveland Center
11:21AM 41.8250 -81.3417 105° East  Level FlightAware Approximate
11:21AM 41.6522 -81.7242 51° Northeast 370 426 12,700  Level Cleveland Center
11:22AM 41.6936 -81.5919 67° East 384 442 14,200 1,500 Climbing Cleveland Center
11:23AM 41.6778 -81.4461 98° East 387 445 15,800 1,560 Climbing Cleveland Center
11:24AM 41.6556 -81.2731 100° East 395 455 17,500 1,440 Climbing Cleveland Center
11:25AM 41.6364 -81.1228 100° East 403 464 18,800 1,260 Climbing Cleveland Center
11:26AM 41.6169 -80.9719 100° East 405 466 20,200 1,320 Climbing Cleveland Center
11:27AM 41.5975 -80.8161 99° East 416 479 21,600 1,260 Climbing Cleveland Center
11:28AM 41.5764 -80.6589 100° East 423 487 22,900 1,200 Climbing Cleveland Center
11:30AM 41.5342 -80.3422 97° East 430 495 25,500 1,260 Climbing Cleveland Center
11:31AM 41.5094 -80.1667 101° East 430 495 26,900 720 Climbing Cleveland Center
11:32AM 41.4892 -80.0058 100° East 436 502 27,000  Climbing Cleveland Center
11:33AM 41.4672 -79.8533 101° East 448 516 27,000  Level Cleveland Center
11:35AM 41.4164 -79.4869 97° East 458 527 27,000  Level Cleveland Center
11:36AM 41.3931 -79.3233 101° East 457 526 27,000  Level Cleveland Center
11:38AM 41.3681 -79.1614 102° East 449 517 27,000  Level Cleveland Center
11:39AM 41.3450 -78.9972 101° East 453 521 27,000  Level Cleveland Center
11:40AM 41.3178 -78.8131 101° East 456 525 27,000  Level Cleveland Center
11:42AM 41.2669 -78.4756 101° East 467 537 27,000  Level Cleveland Center
11:44AM 41.2097 -78.0994 101° East 475 547 27,000  Level New York Center
11:45AM 41.1878 -77.9247 99° East 485 558 27,000  Level Cleveland Center
11:47AM 41.1431 -77.5711 99° East 487 560 27,000  Level Cleveland Center
11:48AM 41.1203 -77.3947 100° East 488 562 27,000  Level Cleveland Center
11:49AM 41.0961 -77.2194 100° East 487 560 27,000 -480 Level New York Center
11:51AM 41.0467 -76.8353 100° East 484 557 25,600 -960 Descending Cleveland Center
11:52AM 41.0211 -76.6608 101° East 485 558 24,100 -1,500 Descending Cleveland Center
11:53AM 40.9864 -76.5189 108° East 487 560 22,800 -1,800 Descending New York Center
11:54AM 40.9472 -76.3342 106° East 481 554 20,800 -2,400 Descending New York Center
11:55AM 40.9114 -76.2078 111° Southeast 444 511 18,000 -1,800 Descending New York Center
11:56AM 40.8711 -76.0397 108° East 432 497 17,200 -1,680 Descending New York Center
11:57AM 40.8375 -75.9056 108° East 432 497 14,700 -2,100 Descending New York Center
11:58AM 40.8039 -75.7633 107° East 412 474 13,000 -900 Descending New York Center
11:59AM 40.7683 -75.6208 108° East 386 444 12,900 -480 Descending New York Center
12:02PM 40.6817 -75.2261 114° Southeast 367 422 11,200 -720 Descending New York Center
12:03PM 40.6400 -75.1139 116° Southeast 357 411 10,200 -660 Descending New York Center
12:04PM 40.5747 -75.0197 132° Southeast 351 404 9,900 -120 Descending New York Center
12:06PM 40.5017 -74.7886 113° Southeast 341 392 10,000 -180 Climbing New York Center
12:07PM 40.4736 -74.6942 111° Southeast 322 371 9,500 -540 Descending New York Center
12:08PM 40.4500 -74.6000 108° East 294 338 9,100 -420 Descending New York TRACON
12:09PM 40.4333 -74.5000 102° East 297 342 8,800 -660 Descending New York TRACON
12:10PM 40.4667 -74.4000 66° East 298 343 7,800 -900 Descending New York TRACON
12:11PM 40.5000 -74.3000 66° East 291 335 7,100 -360 Descending New York TRACON
12:12PM 40.5167 -74.1833 79° East 291 335 7,100 -600 Level New York TRACON
12:13PM 40.5667 -74.1000 52° Northeast 283 326 5,900 -1,260 Descending New York TRACON
12:14PM 40.6333 -74.0667 21° North 267 307 4,600 -960 Descending New York TRACON
12:15PM 40.7000 -74.0333 21° North 262 302 4,000 -300 Descending New York TRACON
12:16PM 40.7667 -74.0167 11° North 243 280 4,100  Climbing New York TRACON
12:17PM 40.8167 -73.9667 37° Northeast 208 239 4,100 -60 Level New York TRACON
12:19PM 40.9167 -73.8833 32° Northeast 209 241 4,000 -360 Descending New York TRACON
12:20PM 40.9500 -73.8333 49° Northeast 215 247 3,100 -540 Descending New York TRACON
12:21PM 40.9167 -73.7833 131° Southeast 194 223 3,000 -480 Descending New York TRACON
12:22PM 40.8667 -73.8000 194° South 169 194 2,200 -720 Descending New York TRACON
12:23PM 40.8500 -73.8167 217° Southwest 123 142 1,600 -720 Descending New York TRACON
12:24PM 40.8167 -73.8500 217° Southwest 125 144 800 -840 Descending New York TRACON